Kalispell, Montana
Current Conditions -  °F | °C
As of 1:58 AM on Thursday 18 Dec 2014 (Local Time) from KGPI Reporting Station
Light Snow Light Snow  
Wind Chill: 29°   Ceiling: 4000
Heat Index: 29°   Visibility: 3mi
Dew Point: 27°   Wind: 0mph
Humidity: 92%   Direction: NA
Pressure: 29.96"   Gusts: NA
Location:  48.2°N, 114.31°W
Report Text: KGPI 180858Z AUTO 00000KT 3SM -SN BR SCT018 BKN040 OVC048 M02/M03 A2996 RMK AO2 VIS 1 NE P0000 T10171028 $
Loading
Personal Weather Stations






























Interactive Weather Map New forecast layout! Learn more

10-Day Weather Forecast

Advertisements
Track Severe Weather on mobile